createdAt,value
2018-02-17T00:00:57.948Z,27.60
2018-02-17T00:03:26.090Z,22.60
2018-02-17T00:05:54.264Z,26.87
2018-02-17T00:08:22.408Z,24.87
2018-02-17T00:10:50.569Z,22.00
2018-02-17T00:13:18.732Z,20.50
2018-02-17T00:15:57.037Z,18.87
2018-02-17T00:18:25.185Z,23.63
2018-02-17T00:20:53.378Z,21.97
2018-02-17T00:23:21.520Z,18.93
2018-02-17T00:25:49.681Z,17.80
2018-02-17T00:28:18.613Z,19.03
2018-02-17T00:30:46.773Z,19.13
2018-02-17T00:33:14.921Z,18.20
2018-02-17T00:35:43.858Z,18.23
2018-02-17T00:38:11.996Z,16.53
2018-02-17T00:40:40.901Z,20.60
2018-02-17T00:43:09.061Z,17.73
2018-02-17T00:45:38.940Z,18.97
2018-02-17T00:48:07.098Z,16.73
2018-02-17T00:50:35.241Z,19.77
2018-02-17T00:53:03.409Z,17.87
2018-02-17T00:55:33.245Z,17.30
2018-02-17T00:58:02.166Z,16.77
2018-02-17T01:00:30.317Z,17.17
2018-02-17T01:02:58.509Z,17.10
2018-02-17T01:05:27.557Z,18.90
2018-02-17T01:07:56.493Z,17.60
2018-02-17T01:10:24.632Z,16.97
2018-02-17T01:12:52.793Z,17.80
2018-02-17T01:15:30.195Z,18.20
2018-02-17T01:17:59.196Z,18.03
2018-02-17T01:20:27.337Z,19.63
2018-02-17T01:22:55.497Z,19.50
2018-02-17T01:25:34.301Z,22.10
2018-02-17T01:28:02.474Z,23.17
2018-02-17T01:30:30.618Z,22.80
2018-02-17T01:32:58.753Z,20.30
2018-02-17T01:35:28.840Z,22.43
2018-02-17T01:37:56.981Z,23.20
2018-02-17T01:40:25.142Z,20.23
2018-02-17T01:42:54.054Z,19.70
2018-02-17T01:45:25.229Z,19.37
2018-02-17T01:47:53.371Z,19.83
2018-02-17T01:50:33.409Z,19.83
2018-02-17T01:53:01.593Z,18.70
2018-02-17T01:55:29.757Z,20.23
2018-02-17T01:57:57.917Z,20.57
2018-02-17T02:00:26.860Z,20.50
2018-02-17T02:02:54.996Z,19.40
2018-02-17T02:05:25.161Z,19.10
2018-02-17T02:07:53.297Z,19.93
2018-02-17T02:10:21.545Z,19.73
2018-02-17T02:12:50.556Z,20.93
2018-02-17T02:15:21.498Z,19.40
2018-02-17T02:17:49.675Z,19.57
2018-02-17T02:20:17.881Z,20.60
2018-02-17T02:22:46.065Z,18.67
2018-02-17T02:25:21.410Z,18.83
2018-02-17T02:27:49.544Z,21.57
2018-02-17T02:30:17.693Z,17.87
2018-02-17T02:32:46.609Z,20.47
2018-02-17T02:35:15.745Z,19.90
2018-02-17T02:37:43.941Z,19.83
2018-02-17T02:40:12.154Z,18.87
2018-02-17T02:42:40.370Z,18.77
2018-02-17T02:45:09.552Z,20.50
2018-02-17T02:47:37.716Z,17.30
2018-02-17T02:50:05.863Z,19.00
2018-02-17T02:52:34.037Z,18.17
2018-02-17T02:55:09.634Z,18.87
2018-02-17T02:57:37.806Z,17.80
2018-02-17T03:00:05.960Z,18.93
2018-02-17T03:02:34.149Z,18.87
2018-02-17T03:05:17.546Z,18.97
2018-02-17T03:07:45.685Z,18.50
2018-02-17T03:10:13.840Z,20.57
2018-02-17T03:12:41.997Z,18.60
2018-02-17T03:15:12.101Z,18.93
2018-02-17T03:17:40.261Z,19.27
2018-02-17T03:20:08.404Z,18.23
2018-02-17T03:22:37.331Z,19.60
2018-02-17T03:25:06.437Z,20.13
2018-02-17T03:27:34.600Z,19.10
2018-02-17T03:30:02.762Z,19.00
2018-02-17T03:32:30.929Z,20.57
2018-02-17T03:35:06.094Z,18.73
2018-02-17T03:37:34.265Z,19.37
2018-02-17T03:40:02.413Z,18.87
2018-02-17T03:42:30.569Z,19.53
2018-02-17T03:45:13.505Z,18.90
2018-02-17T03:47:41.666Z,20.83
2018-02-17T03:50:10.569Z,19.60
2018-02-17T03:52:38.740Z,20.53
2018-02-17T03:55:06.897Z,19.70
2018-02-17T03:57:35.825Z,19.80
2018-02-17T04:00:03.965Z,19.23
2018-02-17T04:02:32.891Z,19.33
2018-02-17T04:05:10.803Z,19.57
2018-02-17T04:07:38.974Z,17.30
2018-02-17T04:10:07.116Z,19.27
2018-02-17T04:12:35.275Z,19.87
2018-02-17T04:15:05.328Z,19.90
2018-02-17T04:17:33.487Z,19.97
2018-02-17T04:20:01.629Z,21.67
2018-02-17T04:22:30.559Z,17.27
2018-02-17T04:24:58.721Z,19.77
2018-02-17T04:27:26.881Z,19.13
2018-02-17T04:29:55.050Z,19.43
2018-02-17T04:32:23.964Z,18.80
2018-02-17T04:35:08.930Z,19.83
2018-02-17T04:37:37.072Z,19.03
2018-02-17T04:40:09.477Z,19.23
2018-02-17T04:45:49.281Z,19.57
2018-02-17T04:48:17.418Z,18.53
2018-02-17T04:50:45.573Z,19.50
2018-02-17T04:53:25.296Z,17.87
2018-02-17T04:59:14.286Z,20.30
2018-02-17T05:01:48.168Z,20.03
2018-02-17T05:04:20.738Z,20.60
2018-02-17T05:07:04.564Z,20.90
2018-02-17T05:09:32.729Z,19.90
2018-02-17T05:12:00.865Z,20.87
2018-02-17T05:14:29.034Z,21.37
2018-02-17T05:17:02.819Z,21.67
2018-02-17T05:19:32.612Z,20.73
2018-02-17T05:22:00.821Z,20.67
2018-02-17T05:24:41.566Z,21.00
2018-02-17T05:27:12.143Z,20.87
2018-02-17T05:29:42.679Z,22.17
2018-02-17T05:32:16.305Z,21.77
2018-02-17T05:35:02.571Z,20.77
2018-02-17T05:37:30.810Z,19.17
2018-02-17T05:40:03.253Z,20.10
2018-02-17T05:42:31.520Z,21.13
2018-02-17T05:45:17.078Z,22.50
2018-02-17T05:47:47.237Z,20.80
2018-02-17T05:50:33.113Z,20.93
2018-02-17T05:53:01.365Z,21.47
2018-02-17T05:55:33.249Z,20.83
2018-02-17T05:58:01.438Z,21.07
2018-02-17T06:00:29.590Z,22.37
2018-02-17T06:02:57.795Z,20.87
2018-02-17T06:05:27.693Z,22.10
2018-02-17T06:07:55.926Z,20.30
2018-02-17T06:10:24.116Z,21.97
2018-02-17T06:12:52.506Z,21.37
2018-02-17T06:15:20.736Z,19.67
2018-02-17T06:17:49.755Z,20.57
2018-02-17T06:20:17.897Z,21.43
2018-02-17T06:22:46.584Z,31.57
2018-02-17T06:25:32.159Z,23.80
2018-02-17T06:28:00.316Z,23.33
2018-02-17T06:30:29.225Z,28.17
2018-02-17T06:32:57.384Z,24.27
2018-02-17T06:35:25.516Z,24.90
2018-02-17T06:37:53.684Z,22.73
2018-02-17T06:40:21.855Z,21.73
2018-02-17T06:42:49.997Z,22.20
2018-02-17T06:45:18.157Z,22.00
2018-02-17T06:47:47.061Z,21.07
2018-02-17T06:50:15.224Z,22.73
2018-02-17T06:52:44.121Z,22.20
2018-02-17T06:55:15.730Z,22.30
2018-02-17T06:57:43.869Z,22.93
2018-02-17T07:00:12.026Z,23.23
2018-02-17T07:02:40.165Z,20.83
2018-02-17T07:05:09.088Z,22.57
2018-02-17T07:07:37.236Z,21.50
2018-02-17T07:10:06.163Z,23.60
2018-02-17T07:12:34.325Z,24.07
2018-02-17T07:15:09.705Z,21.80
2018-02-17T07:17:37.853Z,21.83
2018-02-17T07:20:06.029Z,21.13
2018-02-17T07:22:34.169Z,21.87
2018-02-17T07:25:04.041Z,19.60
2018-02-17T07:27:32.182Z,19.00
2018-02-17T07:30:00.324Z,21.27
2018-02-17T07:32:29.251Z,21.77
2018-02-17T07:34:58.347Z,20.23
2018-02-17T07:37:26.520Z,21.40
2018-02-17T07:39:54.653Z,20.13
2018-02-17T07:42:23.584Z,20.50
2018-02-17T07:44:55.356Z,19.73
2018-02-17T07:47:23.547Z,18.20
2018-02-17T07:49:51.687Z,20.27
2018-02-17T07:52:19.845Z,20.30
2018-02-17T07:54:47.985Z,19.83
2018-02-17T07:57:16.145Z,19.87
2018-02-17T07:59:44.294Z,20.03
2018-02-17T08:02:12.463Z,18.97
2018-02-17T08:04:40.605Z,20.30
2018-02-17T08:07:08.760Z,19.97
2018-02-17T08:09:37.686Z,19.43
2018-02-17T08:12:05.853Z,18.70
2018-02-17T08:14:34.029Z,19.23
2018-02-17T08:17:02.195Z,19.90
2018-02-17T08:19:30.434Z,19.80
2018-02-17T08:21:58.678Z,19.90
2018-02-17T08:24:26.874Z,19.23
2018-02-17T08:26:55.074Z,19.03
2018-02-17T08:29:24.110Z,19.87
2018-02-17T08:31:52.366Z,19.57
2018-02-17T08:34:20.565Z,19.47
2018-02-17T08:37:02.065Z,20.73
2018-02-17T08:39:30.374Z,19.60
2018-02-17T08:41:58.510Z,18.00
2018-02-17T08:44:26.735Z,18.60
2018-02-17T08:47:03.848Z,20.07
2018-02-17T08:49:31.997Z,18.60
2018-02-17T08:52:00.120Z,18.87
2018-02-17T08:54:28.277Z,19.43
2018-02-17T08:56:57.369Z,18.83
2018-02-17T08:59:25.523Z,19.23
2018-02-17T09:01:53.681Z,19.53
2018-02-17T09:04:21.859Z,18.73
2018-02-17T09:06:59.185Z,19.57
2018-02-17T09:09:27.720Z,18.10
2018-02-17T09:11:55.858Z,18.20
2018-02-17T09:14:24.008Z,18.17
2018-02-17T09:16:53.086Z,18.17
2018-02-17T09:19:21.245Z,17.83
2018-02-17T09:21:49.389Z,17.23
2018-02-17T09:24:17.536Z,16.80
2018-02-17T09:27:16.541Z,18.50
2018-02-17T09:29:44.688Z,17.47
2018-02-17T09:32:12.825Z,18.33
2018-02-17T09:34:41.757Z,15.73
2018-02-17T09:37:09.889Z,16.77
2018-02-17T09:39:38.803Z,16.47
2018-02-17T09:42:06.929Z,17.10
2018-02-17T09:44:35.072Z,16.00
2018-02-17T09:47:03.198Z,17.07
2018-02-17T09:49:31.357Z,17.10
2018-02-17T09:51:59.488Z,18.07
2018-02-17T09:54:27.644Z,18.30
2018-02-17T09:57:03.613Z,16.93
2018-02-17T09:59:31.771Z,15.33
2018-02-17T10:01:59.906Z,16.23
2018-02-17T10:04:28.826Z,15.77
2018-02-17T10:06:58.957Z,17.27
2018-02-17T10:09:27.104Z,17.93
2018-02-17T10:11:55.293Z,15.53
2018-02-17T10:14:23.440Z,16.87
2018-02-17T10:17:04.749Z,15.77
2018-02-17T10:19:32.899Z,14.80
2018-02-17T10:22:01.798Z,16.23
2018-02-17T10:24:29.950Z,17.17
2018-02-17T10:27:21.577Z,16.77
2018-02-17T10:29:50.492Z,15.93
2018-02-17T10:32:18.653Z,17.17
2018-02-17T10:35:07.834Z,25.90
2018-02-17T10:37:35.960Z,28.83
2018-02-17T10:40:04.110Z,18.93
2018-02-17T10:42:32.237Z,19.40
2018-02-17T10:45:02.062Z,20.97
2018-02-17T10:47:30.221Z,17.47
2018-02-17T10:49:59.116Z,19.83
2018-02-17T10:52:27.265Z,20.63
2018-02-17T10:54:56.421Z,17.63
2018-02-17T10:57:24.584Z,16.13
2018-02-17T10:59:52.713Z,17.17
2018-02-17T11:02:21.629Z,15.17
2018-02-17T11:04:59.648Z,15.63
2018-02-17T11:07:27.793Z,16.70
2018-02-17T11:09:56.689Z,17.77
2018-02-17T11:12:24.845Z,16.50
2018-02-17T11:14:57.964Z,16.60
2018-02-17T11:17:26.170Z,16.97
2018-02-17T11:19:54.301Z,24.93
2018-02-17T11:22:22.452Z,26.00
2018-02-17T11:24:52.314Z,18.80
2018-02-17T11:27:20.506Z,18.57
2018-02-17T11:29:48.610Z,19.80
2018-02-17T11:32:17.533Z,15.00
2018-02-17T11:34:54.720Z,14.90
2018-02-17T11:37:22.881Z,14.60
2018-02-17T11:39:51.064Z,17.33
2018-02-17T11:42:19.223Z,16.43
2018-02-17T11:44:52.447Z,15.20
2018-02-17T11:47:20.597Z,15.73
2018-02-17T11:49:48.762Z,18.13
2018-02-17T11:52:17.657Z,18.77
2018-02-17T11:54:49.238Z,19.03
2018-02-17T11:57:17.365Z,16.37
2018-02-17T11:59:46.298Z,18.03
2018-02-17T12:02:14.430Z,17.40
2018-02-17T12:04:45.321Z,15.57
2018-02-17T12:07:13.464Z,13.93
2018-02-17T12:09:41.608Z,13.93
2018-02-17T12:12:10.517Z,14.77
2018-02-17T12:14:38.666Z,14.73
2018-02-17T12:17:06.792Z,14.17
2018-02-17T12:19:34.951Z,14.17
2018-02-17T12:22:03.089Z,15.20
2018-02-17T12:24:31.236Z,13.53
2018-02-17T12:27:00.304Z,14.13
2018-02-17T12:29:28.458Z,14.40
2018-02-17T12:31:56.641Z,15.50
2018-02-17T12:34:24.793Z,16.57
2018-02-17T12:37:01.302Z,14.70
2018-02-17T12:39:29.453Z,14.73
2018-02-17T12:41:57.584Z,15.50
2018-02-17T12:44:25.738Z,14.10
2018-02-17T12:47:06.265Z,15.57
2018-02-17T12:49:34.421Z,14.50
2018-02-17T12:52:02.553Z,15.73
2018-02-17T12:54:30.709Z,15.63
2018-02-17T12:57:09.088Z,14.17
2018-02-17T12:59:37.244Z,13.90
2018-02-17T13:02:06.148Z,13.43
2018-02-17T13:04:34.333Z,13.80
2018-02-17T13:07:03.256Z,15.23
2018-02-17T13:09:31.393Z,14.67
2018-02-17T13:11:59.553Z,13.60
2018-02-17T13:14:28.444Z,13.63
2018-02-17T13:16:56.597Z,13.67
2018-02-17T13:19:25.500Z,14.93
2018-02-17T13:21:54.422Z,14.23
2018-02-17T13:24:22.557Z,14.90
2018-02-17T13:26:53.501Z,13.33
2018-02-17T13:29:22.421Z,14.73
2018-02-17T13:31:50.587Z,14.33
2018-02-17T13:34:18.712Z,14.23
2018-02-17T13:36:54.232Z,14.80
2018-02-17T13:39:22.388Z,14.30
2018-02-17T13:41:50.533Z,15.80
2018-02-17T13:44:19.493Z,15.03
2018-02-17T13:47:01.574Z,15.47
2018-02-17T13:49:29.729Z,15.37
2018-02-17T13:51:57.933Z,16.60
2018-02-17T13:54:26.082Z,16.80
2018-02-17T13:56:54.260Z,15.47
2018-02-17T13:59:22.392Z,17.07
2018-02-17T14:01:51.313Z,21.80
2018-02-17T14:04:19.458Z,18.43
2018-02-17T14:06:49.313Z,15.67
2018-02-17T14:09:17.467Z,15.50
2018-02-17T14:11:45.611Z,15.90
2018-02-17T14:14:14.525Z,16.30
2018-02-17T14:16:42.673Z,16.13
2018-02-17T14:19:11.589Z,13.57
2018-02-17T14:21:39.741Z,14.50
2018-02-17T14:24:08.651Z,14.43
2018-02-17T14:26:36.787Z,14.27
2018-02-17T14:29:04.934Z,12.77
2018-02-17T14:31:33.112Z,13.20
2018-02-17T14:34:01.234Z,14.63
2018-02-17T14:37:10.073Z,14.77
2018-02-17T14:39:38.243Z,16.73
2018-02-17T14:42:06.375Z,17.47
2018-02-17T14:44:34.557Z,17.70
2018-02-17T14:47:03.366Z,19.00
2018-02-17T14:49:31.522Z,15.87
2018-02-17T14:51:59.709Z,15.30
2018-02-17T14:54:27.861Z,16.13
2018-02-17T14:56:56.009Z,14.67
2018-02-17T14:59:24.150Z,14.53
2018-02-17T15:01:52.281Z,14.67
2018-02-17T15:04:21.247Z,14.43
2018-02-17T15:06:54.500Z,15.27
2018-02-17T15:09:22.653Z,15.73
2018-02-17T15:11:50.809Z,15.63
2018-02-17T15:14:18.938Z,15.90
2018-02-17T15:16:47.085Z,15.90
2018-02-17T15:19:15.214Z,16.07
2018-02-17T15:21:43.361Z,13.93
2018-02-17T15:24:11.489Z,13.70
2018-02-17T15:26:40.635Z,15.97
2018-02-17T15:29:08.761Z,16.33
2018-02-17T15:31:37.689Z,15.53
2018-02-17T15:34:05.825Z,14.30
2018-02-17T15:36:43.075Z,14.87
2018-02-17T15:39:11.197Z,14.97
2018-02-17T15:41:39.348Z,16.67
2018-02-17T15:44:08.254Z,19.87
2018-02-17T15:46:58.041Z,18.27
2018-02-17T15:49:26.193Z,15.90
2018-02-17T15:51:55.198Z,15.13
2018-02-17T15:54:23.423Z,16.70
2018-02-17T15:57:01.413Z,15.30
2018-02-17T15:59:29.577Z,21.43
2018-02-17T16:01:57.767Z,19.70
2018-02-17T16:04:25.950Z,18.53
2018-02-17T16:07:08.491Z,20.30
2018-02-17T16:09:36.633Z,17.53
2018-02-17T16:12:04.825Z,17.37
2018-02-17T16:14:33.006Z,17.47
2018-02-17T16:17:29.298Z,16.00
2018-02-17T16:19:57.471Z,16.23
2018-02-17T16:22:25.649Z,17.87
2018-02-17T16:24:53.887Z,18.63
2018-02-17T16:27:22.131Z,18.40
2018-02-17T16:29:50.337Z,18.90
2018-02-17T16:32:18.547Z,20.53
2018-02-17T16:34:46.745Z,16.13
2018-02-17T16:37:14.989Z,17.23
2018-02-17T16:39:43.168Z,15.67
2018-02-17T16:42:11.405Z,26.53
2018-02-17T16:44:39.585Z,18.80
2018-02-17T16:47:07.766Z,17.70
2018-02-17T16:49:35.930Z,21.00
2018-02-17T16:52:04.056Z,18.87
2018-02-17T16:54:32.197Z,15.50
2018-02-17T16:57:02.128Z,15.83
2018-02-17T16:59:30.278Z,15.90
2018-02-17T17:01:58.408Z,15.57
2018-02-17T17:04:26.561Z,16.10
2018-02-17T17:07:10.128Z,15.27
2018-02-17T17:09:39.041Z,16.17
2018-02-17T17:12:07.173Z,15.60
2018-02-17T17:14:35.316Z,14.70
2018-02-17T17:17:03.477Z,14.47
2018-02-17T17:19:31.625Z,15.03
2018-02-17T17:21:59.761Z,14.47
2018-02-17T17:24:27.909Z,15.47
2018-02-17T17:26:56.037Z,14.17
2018-02-17T17:29:24.182Z,13.93
2018-02-17T17:31:52.309Z,14.40
2018-02-17T17:34:20.457Z,14.80
2018-02-17T17:36:49.594Z,13.93
2018-02-17T17:39:17.724Z,14.40
2018-02-17T17:41:45.877Z,15.57
2018-02-17T17:44:14.781Z,13.60
2018-02-17T17:46:42.976Z,14.07
2018-02-17T17:49:11.110Z,13.93
2018-02-17T17:51:39.256Z,14.87
2018-02-17T17:54:07.385Z,14.50
2018-02-17T17:56:42.965Z,15.90
2018-02-17T17:59:11.107Z,13.47
2018-02-17T18:01:39.254Z,15.47
2018-02-17T18:04:07.387Z,14.53
2018-02-17T18:06:52.928Z,15.33
2018-02-17T18:09:21.065Z,15.87
2018-02-17T18:11:49.209Z,13.93
2018-02-17T18:14:17.341Z,14.40
2018-02-17T18:16:47.501Z,14.40
2018-02-17T18:19:15.630Z,14.10
2018-02-17T18:21:44.589Z,13.57
2018-02-17T18:24:12.709Z,14.50
2018-02-17T18:26:42.860Z,14.67
2018-02-17T18:29:11.001Z,15.03
2018-02-17T18:31:39.145Z,14.97
2018-02-17T18:34:08.060Z,15.03
2018-02-17T18:36:51.189Z,17.27
2018-02-17T18:39:19.337Z,18.57
2018-02-17T18:41:48.266Z,17.30
2018-02-17T18:44:16.424Z,16.07
2018-02-17T18:46:44.573Z,17.30
2018-02-17T18:49:13.478Z,18.37
2018-02-17T18:51:42.449Z,17.43
2018-02-17T18:54:10.589Z,17.67
2018-02-17T18:56:46.342Z,17.73
2018-02-17T18:59:14.469Z,17.27
2018-02-17T19:01:43.381Z,17.33
2018-02-17T19:04:11.532Z,19.93
2018-02-17T19:07:14.815Z,19.20
2018-02-17T19:09:43.749Z,19.13
2018-02-17T19:12:11.909Z,18.43
2018-02-17T19:14:40.050Z,20.70
2018-02-17T19:17:08.964Z,21.07
2018-02-17T19:19:37.133Z,20.57
2018-02-17T19:22:05.303Z,20.57
2018-02-17T19:24:33.434Z,22.03
2018-02-17T19:27:01.588Z,20.70
2018-02-17T19:29:29.733Z,23.27
2018-02-17T19:31:57.864Z,22.27
2018-02-17T19:34:26.017Z,23.20
2018-02-17T19:36:54.152Z,24.23
2018-02-17T19:39:22.301Z,23.30
2018-02-17T19:41:51.205Z,22.40
2018-02-17T19:44:20.126Z,21.53
2018-02-17T19:46:48.256Z,22.63
2018-02-17T19:49:17.177Z,21.53
2018-02-17T19:51:45.305Z,21.50
2018-02-17T19:54:13.453Z,24.03
2018-02-17T19:56:41.604Z,24.07
2018-02-17T19:59:09.760Z,22.90
2018-02-17T20:01:37.909Z,23.33
2018-02-17T20:04:06.838Z,24.87
2018-02-17T20:06:37.997Z,23.67
2018-02-17T20:09:06.148Z,23.57
2018-02-17T20:11:34.292Z,22.00
2018-02-17T20:14:03.213Z,20.77
2018-02-17T20:16:39.685Z,23.30
2018-02-17T20:19:07.828Z,23.50
2018-02-17T20:21:36.721Z,22.10
2018-02-17T20:24:04.901Z,23.27
2018-02-17T20:26:33.038Z,22.17
2018-02-17T20:29:01.172Z,24.23
2018-02-17T20:31:29.321Z,21.80
2018-02-17T20:33:57.445Z,21.03
2018-02-17T20:36:30.523Z,20.87
2018-02-17T20:38:58.689Z,21.57
2018-02-17T20:41:26.836Z,21.90
2018-02-17T20:43:54.956Z,23.27
2018-02-17T20:46:23.113Z,22.80
2018-02-17T20:48:51.237Z,19.37
2018-02-17T20:51:20.155Z,20.80
2018-02-17T20:53:48.307Z,22.37
2018-02-17T20:56:18.369Z,22.77
2018-02-17T20:58:46.497Z,22.53
2018-02-17T21:01:14.664Z,23.63
2018-02-17T21:03:43.565Z,21.00
2018-02-17T21:06:14.948Z,21.50
2018-02-17T21:08:43.086Z,20.03
2018-02-17T21:11:11.237Z,21.37
2018-02-17T21:13:40.185Z,22.17
2018-02-17T21:16:25.630Z,20.30
2018-02-17T21:18:53.752Z,21.57
2018-02-17T21:21:21.909Z,20.73
2018-02-17T21:23:50.052Z,20.27
2018-02-17T21:26:46.949Z,21.63
2018-02-17T21:29:15.077Z,20.47
2018-02-17T21:31:43.233Z,21.23
2018-02-17T21:34:12.124Z,21.43
2018-02-17T21:36:43.002Z,22.03
2018-02-17T21:39:11.137Z,21.37
2018-02-17T21:41:39.305Z,21.23
2018-02-17T21:44:08.205Z,20.70
2018-02-17T21:46:37.316Z,21.93
2018-02-17T21:49:05.491Z,21.43
2018-02-17T21:51:33.619Z,20.67
2018-02-17T21:54:01.770Z,20.63
2018-02-17T21:56:29.900Z,21.17
2018-02-17T21:58:58.059Z,21.00
2018-02-17T22:01:26.190Z,23.40
2018-02-17T22:03:54.343Z,24.13
2018-02-17T22:06:30.909Z,20.87
2018-02-17T22:08:59.053Z,23.63
2018-02-17T22:11:27.181Z,22.80
2018-02-17T22:13:55.329Z,22.50
2018-02-17T22:16:24.405Z,21.70
2018-02-17T22:18:52.571Z,22.27
2018-02-17T22:21:20.689Z,22.60
2018-02-17T22:23:48.850Z,24.03
2018-02-17T22:26:29.593Z,23.10
2018-02-17T22:28:57.756Z,24.00
2018-02-17T22:31:25.893Z,23.87
2018-02-17T22:33:54.055Z,23.57
2018-02-17T22:36:29.362Z,24.03
2018-02-17T22:38:57.541Z,24.63
2018-02-17T22:41:25.681Z,24.73
2018-02-17T22:43:54.576Z,25.57
2018-02-17T22:46:22.752Z,25.40
2018-02-17T22:48:50.889Z,25.47
2018-02-17T22:51:19.045Z,27.97
2018-02-17T22:53:47.185Z,26.60
2018-02-17T22:56:19.885Z,27.23
2018-02-17T22:58:48.021Z,25.60
2018-02-17T23:01:16.184Z,26.20
2018-02-17T23:03:45.086Z,26.97
2018-02-17T23:06:36.409Z,27.53
2018-02-17T23:09:04.558Z,24.70
2018-02-17T23:11:33.477Z,27.13
2018-02-17T23:14:01.635Z,28.23
2018-02-17T23:16:31.794Z,26.23
2018-02-17T23:18:59.937Z,27.70
2018-02-17T23:21:28.089Z,28.10
2018-02-17T23:23:56.991Z,26.17
2018-02-17T23:26:27.153Z,27.77
2018-02-17T23:28:55.289Z,28.93
2018-02-17T23:31:23.448Z,28.13
2018-02-17T23:33:52.357Z,28.00
2018-02-17T23:36:32.116Z,29.77
2018-02-17T23:39:00.253Z,27.73
2018-02-17T23:41:29.157Z,26.77
2018-02-17T23:43:57.320Z,27.20
2018-02-17T23:46:26.990Z,24.63
2018-02-17T23:48:55.224Z,26.43
2018-02-17T23:51:23.369Z,28.67
2018-02-17T23:53:52.293Z,28.83
2018-02-17T23:56:28.339Z,28.90
2018-02-17T23:58:56.509Z,27.33
